sensor_id;sensor_type;location;lat;lon;timestamp;temperature;humidity
83596;HTU21D;73564;45.026;38.952;2024-03-08T00:02:03;4.05;79.89
83596;HTU21D;73564;45.026;38.952;2024-03-08T00:04:29;4.04;79.05
83596;HTU21D;73564;45.026;38.952;2024-03-08T00:06:55;3.94;79.31
83596;HTU21D;73564;45.026;38.952;2024-03-08T00:09:20;3.95;79.58
83596;HTU21D;73564;45.026;38.952;2024-03-08T00:11:47;3.97;79.91
83596;HTU21D;73564;45.026;38.952;2024-03-08T00:14:14;4.09;80.03
83596;HTU21D;73564;45.026;38.952;2024-03-08T00:16:40;4.08;78.99
83596;HTU21D;73564;45.026;38.952;2024-03-08T00:19:09;3.98;79.04
83596;HTU21D;73564;45.026;38.952;2024-03-08T00:21:35;3.94;80.04
83596;HTU21D;73564;45.026;38.952;2024-03-08T00:24:01;3.92;79.08
83596;HTU21D;73564;45.026;38.952;2024-03-08T00:26:27;3.86;79.60
83596;HTU21D;73564;45.026;38.952;2024-03-08T00:28:54;3.83;79.18
83596;HTU21D;73564;45.026;38.952;2024-03-08T00:31:19;3.80;81.65
83596;HTU21D;73564;45.026;38.952;2024-03-08T00:33:45;3.97;80.12
83596;HTU21D;73564;45.026;38.952;2024-03-08T00:36:11;4.03;79.88
83596;HTU21D;73564;45.026;38.952;2024-03-08T00:38:37;4.01;79.02
83596;HTU21D;73564;45.026;38.952;2024-03-08T00:41:03;3.90;79.53
83596;HTU21D;73564;45.026;38.952;2024-03-08T00:43:29;3.90;79.39
83596;HTU21D;73564;45.026;38.952;2024-03-08T00:45:57;3.87;79.75
83596;HTU21D;73564;45.026;38.952;2024-03-08T00:48:23;3.91;79.84
83596;HTU21D;73564;45.026;38.952;2024-03-08T00:50:49;3.98;82.01
83596;HTU21D;73564;45.026;38.952;2024-03-08T00:53:15;4.17;81.09
83596;HTU21D;73564;45.026;38.952;2024-03-08T00:55:40;4.19;79.44
83596;HTU21D;73564;45.026;38.952;2024-03-08T00:58:06;4.14;81.33
83596;HTU21D;73564;45.026;38.952;2024-03-08T01:00:34;4.17;79.18
83596;HTU21D;73564;45.026;38.952;2024-03-08T01:03:00;4.03;78.76
83596;HTU21D;73564;45.026;38.952;2024-03-08T01:05:26;3.91;79.09
83596;HTU21D;73564;45.026;38.952;2024-03-08T01:07:51;3.83;79.24
83596;HTU21D;73564;45.026;38.952;2024-03-08T01:10:17;3.73;79.55
83596;HTU21D;73564;45.026;38.952;2024-03-08T01:12:43;3.70;79.43
83596;HTU21D;73564;45.026;38.952;2024-03-08T01:15:09;3.68;79.68
83596;HTU21D;73564;45.026;38.952;2024-03-08T01:17:36;3.64;79.71
83596;HTU21D;73564;45.026;38.952;2024-03-08T01:20:03;3.64;79.60
83596;HTU21D;73564;45.026;38.952;2024-03-08T01:22:29;3.61;80.46
83596;HTU21D;73564;45.026;38.952;2024-03-08T01:24:56;3.71;80.47
83596;HTU21D;73564;45.026;38.952;2024-03-08T01:27:22;3.80;80.67
83596;HTU21D;73564;45.026;38.952;2024-03-08T01:29:47;3.91;80.35
83596;HTU21D;73564;45.026;38.952;2024-03-08T01:32:13;3.95;79.61
83596;HTU21D;73564;45.026;38.952;2024-03-08T01:34:43;3.89;79.24
83596;HTU21D;73564;45.026;38.952;2024-03-08T01:37:10;3.78;79.40
83596;HTU21D;73564;45.026;38.952;2024-03-08T01:39:36;3.77;80.27
83596;HTU21D;73564;45.026;38.952;2024-03-08T01:42:02;3.83;79.68
83596;HTU21D;73564;45.026;38.952;2024-03-08T01:44:27;3.77;79.46
83596;HTU21D;73564;45.026;38.952;2024-03-08T01:46:53;3.71;79.71
83596;HTU21D;73564;45.026;38.952;2024-03-08T01:49:20;3.67;79.70
83596;HTU21D;73564;45.026;38.952;2024-03-08T01:51:48;3.61;79.67
83596;HTU21D;73564;45.026;38.952;2024-03-08T01:54:16;3.67;80.24
83596;HTU21D;73564;45.026;38.952;2024-03-08T01:56:42;3.63;80.39
83596;HTU21D;73564;45.026;38.952;2024-03-08T01:59:08;3.67;80.07
83596;HTU21D;73564;45.026;38.952;2024-03-08T02:01:34;3.63;79.85
83596;HTU21D;73564;45.026;38.952;2024-03-08T02:04:00;3.59;80.22
83596;HTU21D;73564;45.026;38.952;2024-03-08T02:06:26;3.60;80.05
83596;HTU21D;73564;45.026;38.952;2024-03-08T02:08:52;3.62;81.46
83596;HTU21D;73564;45.026;38.952;2024-03-08T02:11:18;3.77;80.62
83596;HTU21D;73564;45.026;38.952;2024-03-08T02:13:46;3.83;79.80
83596;HTU21D;73564;45.026;38.952;2024-03-08T02:16:12;3.79;79.99
83596;HTU21D;73564;45.026;38.952;2024-03-08T02:18:37;3.80;80.02
83596;HTU21D;73564;45.026;38.952;2024-03-08T02:21:06;3.79;79.75
83596;HTU21D;73564;45.026;38.952;2024-03-08T02:23:32;3.73;79.78
83596;HTU21D;73564;45.026;38.952;2024-03-08T02:25:59;3.73;79.85
83596;HTU21D;73564;45.026;38.952;2024-03-08T02:28:25;3.67;79.95
83596;HTU21D;73564;45.026;38.952;2024-03-08T02:30:51;3.64;79.94
83596;HTU21D;73564;45.026;38.952;2024-03-08T02:33:22;3.54;79.82
83596;HTU21D;73564;45.026;38.952;2024-03-08T02:35:48;3.47;80.01
83596;HTU21D;73564;45.026;38.952;2024-03-08T02:38:16;3.43;80.20
83596;HTU21D;73564;45.026;38.952;2024-03-08T02:40:46;3.36;80.67
83596;HTU21D;73564;45.026;38.952;2024-03-08T02:43:14;3.42;80.56
83596;HTU21D;73564;45.026;38.952;2024-03-08T02:45:40;3.45;80.61
83596;HTU21D;73564;45.026;38.952;2024-03-08T02:48:08;3.52;81.31
83596;HTU21D;73564;45.026;38.952;2024-03-08T02:50:34;3.61;80.56
83596;HTU21D;73564;45.026;38.952;2024-03-08T02:53:01;3.63;80.01
83596;HTU21D;73564;45.026;38.952;2024-03-08T02:55:26;3.59;79.95
83596;HTU21D;73564;45.026;38.952;2024-03-08T02:57:53;3.53;79.91
83596;HTU21D;73564;45.026;38.952;2024-03-08T03:00:22;3.52;80.17
83596;HTU21D;73564;45.026;38.952;2024-03-08T03:02:50;3.50;80.05
83596;HTU21D;73564;45.026;38.952;2024-03-08T03:05:20;3.44;80.07
83596;HTU21D;73564;45.026;38.952;2024-03-08T03:07:46;3.35;80.13
83596;HTU21D;73564;45.026;38.952;2024-03-08T03:10:12;3.32;80.49
83596;HTU21D;73564;45.026;38.952;2024-03-08T03:12:37;3.31;80.42
83596;HTU21D;73564;45.026;38.952;2024-03-08T03:15:04;3.29;80.78
83596;HTU21D;73564;45.026;38.952;2024-03-08T03:17:30;3.27;81.01
83596;HTU21D;73564;45.026;38.952;2024-03-08T03:19:56;3.17;80.70
83596;HTU21D;73564;45.026;38.952;2024-03-08T03:22:21;3.13;81.01
83596;HTU21D;73564;45.026;38.952;2024-03-08T03:24:47;3.13;81.07
83596;HTU21D;73564;45.026;38.952;2024-03-08T03:27:13;3.10;80.95
83596;HTU21D;73564;45.026;38.952;2024-03-08T03:29:41;3.03;81.03
83596;HTU21D;73564;45.026;38.952;2024-03-08T03:32:14;3.01;81.39
83596;HTU21D;73564;45.026;38.952;2024-03-08T03:34:40;3.03;81.41
83596;HTU21D;73564;45.026;38.952;2024-03-08T03:37:07;3.06;81.10
83596;HTU21D;73564;45.026;38.952;2024-03-08T03:39:34;3.04;81.05
83596;HTU21D;73564;45.026;38.952;2024-03-08T03:42:06;3.06;81.10
83596;HTU21D;73564;45.026;38.952;2024-03-08T03:44:31;3.09;81.91
83596;HTU21D;73564;45.026;38.952;2024-03-08T03:46:58;3.17;81.15
83596;HTU21D;73564;45.026;38.952;2024-03-08T03:49:23;3.27;81.62
83596;HTU21D;73564;45.026;38.952;2024-03-08T03:51:49;3.34;80.76
83596;HTU21D;73564;45.026;38.952;2024-03-08T03:54:15;3.38;80.74
83596;HTU21D;73564;45.026;38.952;2024-03-08T03:56:41;3.33;80.45
83596;HTU21D;73564;45.026;38.952;2024-03-08T03:59:07;3.29;80.59
83596;HTU21D;73564;45.026;38.952;2024-03-08T04:01:33;3.35;81.09
83596;HTU21D;73564;45.026;38.952;2024-03-08T04:03:59;3.43;80.87
83596;HTU21D;73564;45.026;38.952;2024-03-08T04:06:25;3.48;81.26
83596;HTU21D;73564;45.026;38.952;2024-03-08T04:08:51;3.52;80.48
83596;HTU21D;73564;45.026;38.952;2024-03-08T04:11:16;3.58;82.26
83596;HTU21D;73564;45.026;38.952;2024-03-08T04:13:43;3.73;81.09
83596;HTU21D;73564;45.026;38.952;2024-03-08T04:16:09;3.75;80.27
83596;HTU21D;73564;45.026;38.952;2024-03-08T04:18:37;3.77;81.74
83596;HTU21D;73564;45.026;38.952;2024-03-08T04:21:06;3.89;83.40
83596;HTU21D;73564;45.026;38.952;2024-03-08T04:23:34;4.02;80.56
83596;HTU21D;73564;45.026;38.952;2024-03-08T04:26:03;3.97;80.08
83596;HTU21D;73564;45.026;38.952;2024-03-08T04:28:30;4.00;81.25
83596;HTU21D;73564;45.026;38.952;2024-03-08T04:30:57;4.04;81.33
83596;HTU21D;73564;45.026;38.952;2024-03-08T04:33:22;4.12;81.30
83596;HTU21D;73564;45.026;38.952;2024-03-08T04:35:49;4.10;80.05
83596;HTU21D;73564;45.026;38.952;2024-03-08T04:38:15;4.14;81.14
83596;HTU21D;73564;45.026;38.952;2024-03-08T04:40:41;4.18;79.95
83596;HTU21D;73564;45.026;38.952;2024-03-08T04:43:07;4.20;80.89
83596;HTU21D;73564;45.026;38.952;2024-03-08T04:45:34;4.27;80.17
83596;HTU21D;73564;45.026;38.952;2024-03-08T04:48:00;4.23;80.07
83596;HTU21D;73564;45.026;38.952;2024-03-08T04:50:25;4.18;79.47
83596;HTU21D;73564;45.026;38.952;2024-03-08T04:52:55;4.07;79.60
83596;HTU21D;73564;45.026;38.952;2024-03-08T04:55:21;4.02;81.09
83596;HTU21D;73564;45.026;38.952;2024-03-08T04:57:49;4.10;80.52
83596;HTU21D;73564;45.026;38.952;2024-03-08T05:00:16;4.10;79.76
83596;HTU21D;73564;45.026;38.952;2024-03-08T05:02:42;4.09;79.89
83596;HTU21D;73564;45.026;38.952;2024-03-08T05:05:08;4.06;79.49
83596;HTU21D;73564;45.026;38.952;2024-03-08T05:07:38;3.99;79.44
83596;HTU21D;73564;45.026;38.952;2024-03-08T05:10:06;3.90;79.84
83596;HTU21D;73564;45.026;38.952;2024-03-08T05:12:33;3.99;80.23
83596;HTU21D;73564;45.026;38.952;2024-03-08T05:14:58;4.01;79.66
83596;HTU21D;73564;45.026;38.952;2024-03-08T05:17:24;3.93;79.36
83596;HTU21D;73564;45.026;38.952;2024-03-08T05:19:50;3.88;79.79
83596;HTU21D;73564;45.026;38.952;2024-03-08T05:22:16;3.85;80.04
83596;HTU21D;73564;45.026;38.952;2024-03-08T05:24:43;3.82;79.74
83596;HTU21D;73564;45.026;38.952;2024-03-08T05:27:09;3.75;79.58
83596;HTU21D;73564;45.026;38.952;2024-03-08T05:29:34;3.65;79.86
83596;HTU21D;73564;45.026;38.952;2024-03-08T05:32:00;3.65;79.90
83596;HTU21D;73564;45.026;38.952;2024-03-08T05:34:26;3.55;80.36
83596;HTU21D;73564;45.026;38.952;2024-03-08T05:36:54;3.49;80.36
83596;HTU21D;73564;45.026;38.952;2024-03-08T05:39:20;3.49;80.52
83596;HTU21D;73564;45.026;38.952;2024-03-08T05:41:46;3.50;80.30
83596;HTU21D;73564;45.026;38.952;2024-03-08T05:44:13;3.43;80.17
83596;HTU21D;73564;45.026;38.952;2024-03-08T05:46:39;3.35;80.47
83596;HTU21D;73564;45.026;38.952;2024-03-08T05:49:06;3.39;80.55
83596;HTU21D;73564;45.026;38.952;2024-03-08T05:51:32;3.36;80.65
83596;HTU21D;73564;45.026;38.952;2024-03-08T05:54:01;3.34;80.72
83596;HTU21D;73564;45.026;38.952;2024-03-08T05:56:34;3.35;80.64
83596;HTU21D;73564;45.026;38.952;2024-03-08T05:59:01;3.28;80.83
83596;HTU21D;73564;45.026;38.952;2024-03-08T06:01:28;3.25;80.69
83596;HTU21D;73564;45.026;38.952;2024-03-08T06:03:54;3.25;81.10
83596;HTU21D;73564;45.026;38.952;2024-03-08T06:06:23;3.28;80.73
83596;HTU21D;73564;45.026;38.952;2024-03-08T06:08:50;3.23;80.64
83596;HTU21D;73564;45.026;38.952;2024-03-08T06:11:16;3.25;80.91
83596;HTU21D;73564;45.026;38.952;2024-03-08T06:13:43;3.26;81.23
83596;HTU21D;73564;45.026;38.952;2024-03-08T06:16:09;3.31;80.91
83596;HTU21D;73564;45.026;38.952;2024-03-08T06:18:35;3.33;80.58
83596;HTU21D;73564;45.026;38.952;2024-03-08T06:21:08;3.28;80.55
83596;HTU21D;73564;45.026;38.952;2024-03-08T06:23:35;3.23;80.85
83596;HTU21D;73564;45.026;38.952;2024-03-08T06:26:07;3.20;81.00
83596;HTU21D;73564;45.026;38.952;2024-03-08T06:28:33;3.14;80.72
83596;HTU21D;73564;45.026;38.952;2024-03-08T06:31:01;3.11;80.98
83596;HTU21D;73564;45.026;38.952;2024-03-08T06:33:27;3.08;81.19
83596;HTU21D;73564;45.026;38.952;2024-03-08T06:35:55;3.08;81.78
83596;HTU21D;73564;45.026;38.952;2024-03-08T06:38:26;3.25;82.13
83596;HTU21D;73564;45.026;38.952;2024-03-08T06:40:52;3.33;81.27
83596;HTU21D;73564;45.026;38.952;2024-03-08T06:43:18;3.34;80.82
83596;HTU21D;73564;45.026;38.952;2024-03-08T06:45:45;3.31;80.52
83596;HTU21D;73564;45.026;38.952;2024-03-08T06:48:15;3.23;80.62
83596;HTU21D;73564;45.026;38.952;2024-03-08T06:50:43;3.19;80.91
83596;HTU21D;73564;45.026;38.952;2024-03-08T06:53:09;3.13;80.85
83596;HTU21D;73564;45.026;38.952;2024-03-08T06:55:35;3.09;80.99
83596;HTU21D;73564;45.026;38.952;2024-03-08T06:58:01;3.08;81.22
83596;HTU21D;73564;45.026;38.952;2024-03-08T07:00:27;3.20;83.31
83596;HTU21D;73564;45.026;38.952;2024-03-08T07:02:54;3.52;83.32
83596;HTU21D;73564;45.026;38.952;2024-03-08T07:05:20;3.63;81.36
83596;HTU21D;73564;45.026;38.952;2024-03-08T07:07:46;3.74;81.39
83596;HTU21D;73564;45.026;38.952;2024-03-08T07:10:14;3.82;80.27
83596;HTU21D;73564;45.026;38.952;2024-03-08T07:12:41;3.72;79.88
83596;HTU21D;73564;45.026;38.952;2024-03-08T07:15:08;3.61;80.20
83596;HTU21D;73564;45.026;38.952;2024-03-08T07:17:39;3.65;80.63
83596;HTU21D;73564;45.026;38.952;2024-03-08T07:20:06;3.65;80.22
83596;HTU21D;73564;45.026;38.952;2024-03-08T07:22:37;3.71;83.47
83596;HTU21D;73564;45.026;38.952;2024-03-08T07:25:07;3.89;80.88
83596;HTU21D;73564;45.026;38.952;2024-03-08T07:27:33;4.06;87.51
83596;HTU21D;73564;45.026;38.952;2024-03-08T07:30:02;4.49;87.46
83596;HTU21D;73564;45.026;38.952;2024-03-08T07:32:28;4.92;82.83
83596;HTU21D;73564;45.026;38.952;2024-03-08T07:34:55;5.12;80.80
83596;HTU21D;73564;45.026;38.952;2024-03-08T07:37:21;5.15;80.23
83596;HTU21D;73564;45.026;38.952;2024-03-08T07:39:47;5.24;80.03
83596;HTU21D;73564;45.026;38.952;2024-03-08T07:42:13;5.20;78.54
83596;HTU21D;73564;45.026;38.952;2024-03-08T07:44:39;4.98;78.73
83596;HTU21D;73564;45.026;38.952;2024-03-08T07:47:05;4.87;79.45
83596;HTU21D;73564;45.026;38.952;2024-03-08T07:49:35;4.83;79.42
83596;HTU21D;73564;45.026;38.952;2024-03-08T07:52:01;4.77;79.59
83596;HTU21D;73564;45.026;38.952;2024-03-08T07:54:27;4.79;79.81
83596;HTU21D;73564;45.026;38.952;2024-03-08T07:56:53;4.76;79.52
83596;HTU21D;73564;45.026;38.952;2024-03-08T07:59:19;4.71;79.72
83596;HTU21D;73564;45.026;38.952;2024-03-08T08:01:46;4.68;79.56
83596;HTU21D;73564;45.026;38.952;2024-03-08T08:04:13;4.63;79.27
83596;HTU21D;73564;45.026;38.952;2024-03-08T08:06:40;4.49;79.15
83596;HTU21D;73564;45.026;38.952;2024-03-08T08:09:09;4.38;79.66
83596;HTU21D;73564;45.026;38.952;2024-03-08T08:11:43;4.39;80.04
83596;HTU21D;73564;45.026;38.952;2024-03-08T08:14:09;4.39;80.04
83596;HTU21D;73564;45.026;38.952;2024-03-08T08:16:38;4.44;80.19
83596;HTU21D;73564;45.026;38.952;2024-03-08T08:19:07;4.58;80.20
83596;HTU21D;73564;45.026;38.952;2024-03-08T08:21:35;4.61;80.52
83596;HTU21D;73564;45.026;38.952;2024-03-08T08:24:04;4.77;80.75
83596;HTU21D;73564;45.026;38.952;2024-03-08T08:26:30;4.86;79.68
83596;HTU21D;73564;45.026;38.952;2024-03-08T08:28:56;4.87;79.95
83596;HTU21D;73564;45.026;38.952;2024-03-08T08:31:22;4.81;78.97
83596;HTU21D;73564;45.026;38.952;2024-03-08T08:33:48;4.74;78.95
83596;HTU21D;73564;45.026;38.952;2024-03-08T08:36:14;4.66;80.36
83596;HTU21D;73564;45.026;38.952;2024-03-08T08:38:40;4.72;80.28
83596;HTU21D;73564;45.026;38.952;2024-03-08T08:41:09;4.86;81.25
83596;HTU21D;73564;45.026;38.952;2024-03-08T08:43:36;5.03;80.14
83596;HTU21D;73564;45.026;38.952;2024-03-08T08:46:02;5.10;79.55
83596;HTU21D;73564;45.026;38.952;2024-03-08T08:48:28;5.08;78.99
83596;HTU21D;73564;45.026;38.952;2024-03-08T08:50:56;5.02;78.95
83596;HTU21D;73564;45.026;38.952;2024-03-08T08:53:22;4.93;78.97
83596;HTU21D;73564;45.026;38.952;2024-03-08T08:55:48;4.90;79.21
83596;HTU21D;73564;45.026;38.952;2024-03-08T08:58:13;4.89;79.45
83596;HTU21D;73564;45.026;38.952;2024-03-08T09:00:39;4.91;79.69
83596;HTU21D;73564;45.026;38.952;2024-03-08T09:03:05;5.02;80.44
83596;HTU21D;73564;45.026;38.952;2024-03-08T09:05:32;5.17;80.04
83596;HTU21D;73564;45.026;38.952;2024-03-08T09:07:59;5.40;81.42
83596;HTU21D;73564;45.026;38.952;2024-03-08T09:10:26;5.54;78.79
83596;HTU21D;73564;45.026;38.952;2024-03-08T09:12:53;5.42;78.30
83596;HTU21D;73564;45.026;38.952;2024-03-08T09:15:19;5.42;80.77
83596;HTU21D;73564;45.026;38.952;2024-03-08T09:17:46;5.62;79.49
83596;HTU21D;73564;45.026;38.952;2024-03-08T09:20:14;5.80;81.33
83596;HTU21D;73564;45.026;38.952;2024-03-08T09:22:43;6.05;79.56
83596;HTU21D;73564;45.026;38.952;2024-03-08T09:25:09;6.16;79.91
83596;HTU21D;73564;45.026;38.952;2024-03-08T09:27:35;6.40;81.12
83596;HTU21D;73564;45.026;38.952;2024-03-08T09:30:01;6.71;79.08
83596;HTU21D;73564;45.026;38.952;2024-03-08T09:32:27;6.81;77.91
83596;HTU21D;73564;45.026;38.952;2024-03-08T09:34:52;6.90;78.01
83596;HTU21D;73564;45.026;38.952;2024-03-08T09:37:18;6.88;77.41
83596;HTU21D;73564;45.026;38.952;2024-03-08T09:39:44;6.79;76.92
83596;HTU21D;73564;45.026;38.952;2024-03-08T09:42:10;6.71;77.67
83596;HTU21D;73564;45.026;38.952;2024-03-08T09:44:47;6.64;76.97
83596;HTU21D;73564;45.026;38.952;2024-03-08T09:47:14;6.45;76.65
83596;HTU21D;73564;45.026;38.952;2024-03-08T09:49:41;6.24;77.08
83596;HTU21D;73564;45.026;38.952;2024-03-08T09:52:07;6.20;78.90
83596;HTU21D;73564;45.026;38.952;2024-03-08T09:54:34;6.42;79.85
83596;HTU21D;73564;45.026;38.952;2024-03-08T09:57:00;6.56;78.09
83596;HTU21D;73564;45.026;38.952;2024-03-08T09:59:29;6.64;78.78
83596;HTU21D;73564;45.026;38.952;2024-03-08T10:02:04;6.89;79.56
83596;HTU21D;73564;45.026;38.952;2024-03-08T10:04:30;7.18;77.79
83596;HTU21D;73564;45.026;38.952;2024-03-08T10:07:00;7.19;76.79
83596;HTU21D;73564;45.026;38.952;2024-03-08T10:09:26;7.14;77.86
83596;HTU21D;73564;45.026;38.952;2024-03-08T10:11:56;7.23;76.92
83596;HTU21D;73564;45.026;38.952;2024-03-08T10:14:26;7.29;78.14
83596;HTU21D;73564;45.026;38.952;2024-03-08T10:16:52;7.57;77.77
83596;HTU21D;73564;45.026;38.952;2024-03-08T10:19:19;7.82;77.16
83596;HTU21D;73564;45.026;38.952;2024-03-08T10:21:49;8.02;75.28
83596;HTU21D;73564;45.026;38.952;2024-03-08T10:24:15;8.13;74.76
83596;HTU21D;73564;45.026;38.952;2024-03-08T10:26:40;8.11;74.78
83596;HTU21D;73564;45.026;38.952;2024-03-08T10:29:09;8.12;74.89
83596;HTU21D;73564;45.026;38.952;2024-03-08T10:31:35;8.01;74.76
83596;HTU21D;73564;45.026;38.952;2024-03-08T10:34:01;7.85;75.47
83596;HTU21D;73564;45.026;38.952;2024-03-08T10:36:28;7.88;75.36
83596;HTU21D;73564;45.026;38.952;2024-03-08T10:38:56;7.88;75.45
83596;HTU21D;73564;45.026;38.952;2024-03-08T10:41:28;7.98;76.08
83596;HTU21D;73564;45.026;38.952;2024-03-08T10:44:23;8.17;74.85
83596;HTU21D;73564;45.026;38.952;2024-03-08T10:52:36;7.75;74.48
83596;HTU21D;73564;45.026;38.952;2024-03-08T10:55:02;7.60;75.09
83596;HTU21D;73564;45.026;38.952;2024-03-08T10:57:28;7.54;74.69
83596;HTU21D;73564;45.026;38.952;2024-03-08T10:59:54;7.39;74.88
83596;HTU21D;73564;45.026;38.952;2024-03-08T11:02:20;7.34;75.63
83596;HTU21D;73564;45.026;38.952;2024-03-08T11:04:47;7.33;75.95
83596;HTU21D;73564;45.026;38.952;2024-03-08T11:07:15;7.44;76.79
83596;HTU21D;73564;45.026;38.952;2024-03-08T11:09:47;7.52;75.99
83596;HTU21D;73564;45.026;38.952;2024-03-08T11:12:23;7.46;75.57
83596;HTU21D;73564;45.026;38.952;2024-03-08T11:14:59;7.40;76.98
83596;HTU21D;73564;45.026;38.952;2024-03-08T11:17:39;7.57;79.28
83596;HTU21D;73564;45.026;38.952;2024-03-08T11:20:19;7.88;77.25
83596;HTU21D;73564;45.026;38.952;2024-03-08T11:22:50;7.89;76.61
83596;HTU21D;73564;45.026;38.952;2024-03-08T11:28:20;7.90;78.62
83596;HTU21D;73564;45.026;38.952;2024-03-08T11:33:32;8.12;77.49
83596;HTU21D;73564;45.026;38.952;2024-03-08T11:36:13;8.37;79.60
83596;HTU21D;73564;45.026;38.952;2024-03-08T11:38:45;8.53;75.64
83596;HTU21D;73564;45.026;38.952;2024-03-08T11:43:49;8.55;75.84
83596;HTU21D;73564;45.026;38.952;2024-03-08T11:46:16;8.59;75.53
83596;HTU21D;73564;45.026;38.952;2024-03-08T11:48:43;8.50;74.84
83596;HTU21D;73564;45.026;38.952;2024-03-08T11:51:13;8.33;75.31
83596;HTU21D;73564;45.026;38.952;2024-03-08T11:53:40;8.31;74.52
83596;HTU21D;73564;45.026;38.952;2024-03-08T11:56:13;8.07;73.32
83596;HTU21D;73564;45.026;38.952;2024-03-08T11:58:40;7.73;75.07
83596;HTU21D;73564;45.026;38.952;2024-03-08T12:01:10;7.54;74.12
83596;HTU21D;73564;45.026;38.952;2024-03-08T12:03:39;7.26;74.39
83596;HTU21D;73564;45.026;38.952;2024-03-08T12:06:08;7.01;74.64
83596;HTU21D;73564;45.026;38.952;2024-03-08T12:08:37;6.91;75.92
83596;HTU21D;73564;45.026;38.952;2024-03-08T12:11:06;6.95;76.84
83596;HTU21D;73564;45.026;38.952;2024-03-08T12:13:33;7.09;76.14
83596;HTU21D;73564;45.026;38.952;2024-03-08T12:16:01;7.12;75.16
83596;HTU21D;73564;45.026;38.952;2024-03-08T12:18:33;6.95;75.08
83596;HTU21D;73564;45.026;38.952;2024-03-08T12:21:08;6.94;75.60
83596;HTU21D;73564;45.026;38.952;2024-03-08T12:23:35;6.82;75.80
83596;HTU21D;73564;45.026;38.952;2024-03-08T12:26:11;6.96;77.80
83596;HTU21D;73564;45.026;38.952;2024-03-08T12:28:42;7.03;74.91
83596;HTU21D;73564;45.026;38.952;2024-03-08T12:31:11;6.88;76.44
83596;HTU21D;73564;45.026;38.952;2024-03-08T12:36:32;6.95;75.69
83596;HTU21D;73564;45.026;38.952;2024-03-08T12:38:58;6.95;76.24
83596;HTU21D;73564;45.026;38.952;2024-03-08T12:41:25;7.11;77.38
83596;HTU21D;73564;45.026;38.952;2024-03-08T12:43:52;7.43;77.65
83596;HTU21D;73564;45.026;38.952;2024-03-08T12:46:19;7.73;77.24
83596;HTU21D;73564;45.026;38.952;2024-03-08T12:48:46;8.03;76.67
83596;HTU21D;73564;45.026;38.952;2024-03-08T12:51:16;8.32;75.61
83596;HTU21D;73564;45.026;38.952;2024-03-08T12:53:43;8.45;74.41
83596;HTU21D;73564;45.026;38.952;2024-03-08T12:56:10;8.38;73.58
83596;HTU21D;73564;45.026;38.952;2024-03-08T12:58:36;8.36;73.94
83596;HTU21D;73564;45.026;38.952;2024-03-08T13:01:05;8.34;74.24
83596;HTU21D;73564;45.026;38.952;2024-03-08T13:03:34;8.42;74.51
83596;HTU21D;73564;45.026;38.952;2024-03-08T13:06:05;8.52;72.43
83596;HTU21D;73564;45.026;38.952;2024-03-08T13:08:36;8.50;73.63
83596;HTU21D;73564;45.026;38.952;2024-03-08T13:11:05;8.58;73.89
83596;HTU21D;73564;45.026;38.952;2024-03-08T13:13:31;8.73;73.84
83596;HTU21D;73564;45.026;38.952;2024-03-08T13:15:56;8.91;73.77
83596;HTU21D;73564;45.026;38.952;2024-03-08T13:18:25;9.09;72.88
83596;HTU21D;73564;45.026;38.952;2024-03-08T13:20:51;9.11;72.44
83596;HTU21D;73564;45.026;38.952;2024-03-08T13:23:17;9.14;72.41
83596;HTU21D;73564;45.026;38.952;2024-03-08T13:25:43;9.19;71.98
83596;HTU21D;73564;45.026;38.952;2024-03-08T13:28:09;9.11;70.84
83596;HTU21D;73564;45.026;38.952;2024-03-08T13:30:36;8.89;71.64
83596;HTU21D;73564;45.026;38.952;2024-03-08T13:33:02;8.83;72.29
83596;HTU21D;73564;45.026;38.952;2024-03-08T13:35:30;8.89;72.41
83596;HTU21D;73564;45.026;38.952;2024-03-08T13:37:56;8.98;72.17
83596;HTU21D;73564;45.026;38.952;2024-03-08T13:40:22;8.97;72.07
83596;HTU21D;73564;45.026;38.952;2024-03-08T13:42:48;9.04;72.05
83596;HTU21D;73564;45.026;38.952;2024-03-08T13:45:17;9.16;72.28
83596;HTU21D;73564;45.026;38.952;2024-03-08T13:47:50;9.31;71.80
83596;HTU21D;73564;45.026;38.952;2024-03-08T13:50:17;9.41;71.93
83596;HTU21D;73564;45.026;38.952;2024-03-08T13:52:49;9.57;71.86
83596;HTU21D;73564;45.026;38.952;2024-03-08T13:55:20;9.74;71.13
83596;HTU21D;73564;45.026;38.952;2024-03-08T13:57:48;9.86;70.70
83596;HTU21D;73564;45.026;38.952;2024-03-08T14:00:14;9.94;70.48
83596;HTU21D;73564;45.026;38.952;2024-03-08T14:02:40;10.03;70.57
83596;HTU21D;73564;45.026;38.952;2024-03-08T14:05:07;10.13;70.28
83596;HTU21D;73564;45.026;38.952;2024-03-08T14:07:35;10.25;70.35
83596;HTU21D;73564;45.026;38.952;2024-03-08T14:10:01;10.38;70.03
83596;HTU21D;73564;45.026;38.952;2024-03-08T14:12:26;10.49;69.61
83596;HTU21D;73564;45.026;38.952;2024-03-08T14:14:53;10.55;69.23
83596;HTU21D;73564;45.026;38.952;2024-03-08T14:17:18;10.62;69.24
83596;HTU21D;73564;45.026;38.952;2024-03-08T14:19:44;10.66;68.81
83596;HTU21D;73564;45.026;38.952;2024-03-08T14:22:10;10.68;67.93
83596;HTU21D;73564;45.026;38.952;2024-03-08T14:24:42;10.55;66.11
83596;HTU21D;73564;45.026;38.952;2024-03-08T14:27:09;10.33;67.83
83596;HTU21D;73564;45.026;38.952;2024-03-08T14:29:35;10.24;68.90
83596;HTU21D;73564;45.026;38.952;2024-03-08T14:32:01;10.31;69.10
83596;HTU21D;73564;45.026;38.952;2024-03-08T14:34:29;10.38;68.81
83596;HTU21D;73564;45.026;38.952;2024-03-08T14:36:57;10.46;68.51
83596;HTU21D;73564;45.026;38.952;2024-03-08T14:39:24;10.48;67.95
83596;HTU21D;73564;45.026;38.952;2024-03-08T14:41:52;10.45;67.97
83596;HTU21D;73564;45.026;38.952;2024-03-08T14:44:22;10.45;67.94
83596;HTU21D;73564;45.026;38.952;2024-03-08T14:46:52;10.50;68.07
83596;HTU21D;73564;45.026;38.952;2024-03-08T14:49:18;10.53;67.86
83596;HTU21D;73564;45.026;38.952;2024-03-08T14:51:44;10.56;67.64
83596;HTU21D;73564;45.026;38.952;2024-03-08T14:54:10;10.56;67.16
83596;HTU21D;73564;45.026;38.952;2024-03-08T14:56:37;10.44;67.20
83596;HTU21D;73564;45.026;38.952;2024-03-08T14:59:02;10.38;66.88
83596;HTU21D;73564;45.026;38.952;2024-03-08T15:01:30;10.26;67.36
83596;HTU21D;73564;45.026;38.952;2024-03-08T15:03:58;10.24;67.97
83596;HTU21D;73564;45.026;38.952;2024-03-08T15:06:35;10.29;68.10
83596;HTU21D;73564;45.026;38.952;2024-03-08T15:09:03;10.41;67.95
83596;HTU21D;73564;45.026;38.952;2024-03-08T15:11:46;10.51;67.50
83596;HTU21D;73564;45.026;38.952;2024-03-08T15:14:11;10.57;67.49
83596;HTU21D;73564;45.026;38.952;2024-03-08T15:16:38;10.62;67.36
83596;HTU21D;73564;45.026;38.952;2024-03-08T15:19:05;10.65;67.21
83596;HTU21D;73564;45.026;38.952;2024-03-08T15:21:31;10.67;67.07
83596;HTU21D;73564;45.026;38.952;2024-03-08T15:23:57;10.70;66.88
83596;HTU21D;73564;45.026;38.952;2024-03-08T15:26:23;10.68;66.75
83596;HTU21D;73564;45.026;38.952;2024-03-08T15:28:51;10.64;66.48
83596;HTU21D;73564;45.026;38.952;2024-03-08T15:31:19;10.58;66.77
83596;HTU21D;73564;45.026;38.952;2024-03-08T15:33:46;10.52;63.60